Time;durP1;ratioP1;P1;durP2;ratioP2;P2;SDS_P1;SDS_P2;PMS_P1;PMS_P2;Temp;Humidity;BMP_temperature;BMP_pressure;BME280_temperature;BME280_humidity;BME280_pressure;Samples;Min_cycle;Max_cycle;Signal;HPM_P1;HPM_P2
2021/12/09 00:02:14;;;;;;;18.27;11.80;;;5.10;99.90;;;;;;5028202;28;20224;-66
2021/12/09 00:04:41;;;;;;;21.53;12.20;;;5.10;99.90;;;;;;5027809;28;20439;-69
2021/12/09 00:07:07;;;;;;;20.87;11.87;;;5.10;99.90;;;;;;5026110;28;20427;-67
2021/12/09 00:09:32;;;;;;;19.40;12.20;;;5.10;99.90;;;;;;5027317;28;20448;-68
2021/12/09 00:11:59;;;;;;;23.33;12.70;;;5.10;99.90;;;;;;5035449;28;20166;-67
2021/12/09 00:14:28;;;;;;;18.03;12.33;;;7.10;99.90;;;;;;5035940;28;20243;-66
2021/12/09 00:16:57;;;;;;;18.67;11.93;;;5.20;99.90;;;;;;5027790;28;20495;-66
2021/12/09 00:19:23;;;;;;;18.93;11.63;;;5.20;99.90;;;;;;5027493;28;20862;-67
2021/12/09 00:21:50;;;;;;;23.93;12.33;;;5.30;99.90;;;;;;5027866;28;20480;-66
2021/12/09 00:24:16;;;;;;;20.50;12.93;;;5.30;99.90;;;;;;5024988;28;20425;-70
2021/12/09 00:26:44;;;;;;;22.10;12.90;;;5.30;99.90;;;;;;5025015;28;20555;-67
2021/12/09 00:29:11;;;;;;;23.67;13.10;;;5.30;99.90;;;;;;5026037;28;20492;-69
2021/12/09 00:31:36;;;;;;;23.03;12.93;;;5.30;99.90;;;;;;5027341;28;20503;-70
2021/12/09 00:34:03;;;;;;;23.90;12.37;;;5.40;99.90;;;;;;5027545;28;20507;-69
2021/12/09 00:36:40;;;;;;;25.63;12.87;;;5.30;99.90;;;;;;5026198;28;20265;-68
2021/12/09 00:39:09;;;;;;;15.90;10.73;;;5.30;99.90;;;;;;5034369;28;20452;-70
2021/12/09 00:41:36;;;;;;;18.70;12.07;;;5.30;99.90;;;;;;5036269;28;20538;-65
2021/12/09 00:44:02;;;;;;;20.37;12.13;;;5.30;99.90;;;;;;5037750;28;20425;-67
2021/12/09 00:46:28;;;;;;;19.40;11.50;;;5.40;99.90;;;;;;5031830;28;20401;-67
2021/12/09 00:48:53;;;;;;;18.40;12.13;;;5.40;99.90;;;;;;5029720;28;20463;-66
2021/12/09 00:51:19;;;;;;;21.90;12.40;;;5.40;99.90;;;;;;5031338;28;20188;-74
2021/12/09 00:53:44;;;;;;;19.60;12.20;;;5.30;99.90;;;;;;5030655;28;20190;-67
2021/12/09 00:56:12;;;;;;;21.10;12.57;;;5.30;99.90;;;;;;5031087;28;20192;-68
2021/12/09 00:58:41;;;;;;;18.20;11.93;;;5.20;99.90;;;;;;5031127;28;20266;-67
2021/12/09 01:01:07;;;;;;;19.27;11.37;;;5.20;99.90;;;;;;5031211;28;20459;-66
2021/12/09 01:03:35;;;;;;;21.63;11.80;;;5.10;99.90;;;;;;5029014;28;20911;-66
2021/12/09 01:06:01;;;;;;;20.50;12.20;;;5.10;99.90;;;;;;5030850;28;20413;-65
2021/12/09 01:08:27;;;;;;;27.57;13.87;;;5.20;99.90;;;;;;5028505;28;20509;-67
2021/12/09 01:10:52;;;;;;;16.13;10.70;;;5.20;99.90;;;;;;5034343;28;20959;-68
2021/12/09 01:13:18;;;;;;;17.77;12.27;;;5.20;99.90;;;;;;5034730;28;20296;-67
2021/12/09 01:15:44;;;;;;;19.63;12.50;;;5.20;99.90;;;;;;5030288;28;20178;-66
2021/12/09 01:18:10;;;;;;;27.40;12.60;;;5.20;99.90;;;;;;5029388;28;20790;-67
2021/12/09 01:20:36;;;;;;;20.60;12.77;;;5.20;99.90;;;;;;5025436;28;20304;-67
2021/12/09 01:23:03;;;;;;;18.53;13.00;;;5.20;99.90;;;;;;5030382;28;20185;-67
2021/12/09 01:25:35;;;;;;;18.50;12.63;;;5.20;99.90;;;;;;5038187;28;20412;-67
2021/12/09 01:28:02;;;;;;;24.20;11.77;;;5.20;99.90;;;;;;5039164;28;20448;-69
2021/12/09 01:30:28;;;;;;;23.37;13.23;;;5.20;99.90;;;;;;5030467;28;20435;-67
2021/12/09 01:32:55;;;;;;;26.57;13.83;;;5.20;99.90;;;;;;5031180;28;20424;-68
2021/12/09 01:35:24;;;;;;;29.10;15.97;;;5.20;99.90;;;;;;5044155;28;20178;-71
2021/12/09 01:37:54;;;;;;;27.30;14.20;;;5.20;99.90;;;;;;5029948;28;20424;-70
2021/12/09 01:40:21;;;;;;;24.67;14.70;;;5.10;99.90;;;;;;5029541;28;20567;-67
2021/12/09 01:42:47;;;;;;;29.33;15.43;;;5.30;99.90;;;;;;5034333;28;20823;-66
2021/12/09 01:45:13;;;;;;;27.17;15.23;;;5.20;99.90;;;;;;5050690;28;20442;-66
2021/12/09 01:47:39;;;;;;;26.13;14.43;;;5.20;99.90;;;;;;5041640;28;20511;-66
2021/12/09 01:50:06;;;;;;;22.27;13.97;;;5.20;99.90;;;;;;5030642;28;20267;-71
2021/12/09 01:52:32;;;;;;;22.23;14.37;;;5.20;99.90;;;;;;5029495;28;20857;-66
2021/12/09 01:54:58;;;;;;;23.40;13.80;;;5.20;99.90;;;;;;5030314;28;20405;-67
2021/12/09 01:57:24;;;;;;;24.30;14.03;;;5.10;99.90;;;;;;5029741;28;20185;-68
2021/12/09 01:59:50;;;;;;;30.10;13.80;;;5.00;99.90;;;;;;5028813;28;20587;-71
2021/12/09 02:02:15;;;;;;;20.20;12.33;;;5.00;99.90;;;;;;5029274;28;20213;-69
2021/12/09 02:04:42;;;;;;;20.60;12.50;;;5.00;99.90;;;;;;5030374;28;20833;-68
2021/12/09 02:07:07;;;;;;;23.80;13.30;;;5.00;99.90;;;;;;5029359;28;20188;-67
2021/12/09 02:09:35;;;;;;;27.27;13.00;;;5.00;99.90;;;;;;5028190;28;20432;-66
2021/12/09 02:12:01;;;;;;;20.67;13.27;;;5.20;99.90;;;;;;5036261;28;20174;-67
2021/12/09 02:14:26;;;;;;;25.60;15.30;;;5.00;99.90;;;;;;5039145;28;20898;-69
2021/12/09 02:16:52;;;;;;;27.33;15.33;;;5.00;99.90;;;;;;5029382;28;20417;-68
2021/12/09 02:19:17;;;;;;;24.30;15.13;;;4.90;99.90;;;;;;5029868;28;20206;-69
2021/12/09 02:21:43;;;;;;;30.63;15.10;;;4.90;99.90;;;;;;5029824;28;20206;-68
2021/12/09 02:24:14;;;;;;;25.47;15.77;;;4.90;99.90;;;;;;5028951;28;20547;-68
2021/12/09 02:26:42;;;;;;;23.17;14.57;;;4.90;99.90;;;;;;5028935;28;20249;-67
2021/12/09 02:29:12;;;;;;;28.00;13.80;;;4.90;99.90;;;;;;5024484;28;20494;-66
2021/12/09 02:31:39;;;;;;;23.60;14.60;;;5.00;99.90;;;;;;5029873;28;20427;-68
2021/12/09 02:34:06;;;;;;;24.40;14.40;;;5.00;99.90;;;;;;5029356;28;20410;-67
2021/12/09 02:36:36;;;;;;;27.17;16.00;;;5.00;99.90;;;;;;5029807;28;20412;-69
2021/12/09 02:39:04;;;;;;;28.93;14.50;;;5.10;99.90;;;;;;5028701;28;20462;-66
2021/12/09 02:41:30;;;;;;;24.73;14.30;;;5.10;99.90;;;;;;5035470;28;20787;-71
2021/12/09 02:44:00;;;;;;;26.03;14.53;;;5.10;99.90;;;;;;5037601;28;20894;-69
2021/12/09 02:46:27;;;;;;;26.63;13.87;;;5.10;99.90;;;;;;5027918;28;20177;-71
2021/12/09 02:48:53;;;;;;;24.23;13.50;;;5.10;99.90;;;;;;5028929;28;20435;-68
2021/12/09 02:51:19;;;;;;;29.13;14.03;;;5.10;99.90;;;;;;5034235;28;20422;-69
2021/12/09 02:53:45;;;;;;;28.90;13.53;;;5.00;99.90;;;;;;5027401;28;20428;-66
2021/12/09 02:56:12;;;;;;;23.10;14.00;;;4.90;99.90;;;;;;5029063;28;20417;-69
2021/12/09 02:58:38;;;;;;;23.23;14.17;;;4.90;99.90;;;;;;5028980;28;20197;-67
2021/12/09 03:01:22;;;;;;;21.63;13.60;;;4.90;99.90;;;;;;5028676;28;20877;-66
2021/12/09 03:03:52;;;;;;;25.77;14.40;;;4.80;99.90;;;;;;5028283;28;20288;-66
2021/12/09 03:06:19;;;;;;;28.87;14.07;;;4.80;99.90;;;;;;5028918;28;20934;-70
2021/12/09 03:08:45;;;;;;;24.80;13.33;;;4.80;99.90;;;;;;5028020;28;21160;-67
2021/12/09 03:11:14;;;;;;;28.17;13.37;;;4.80;99.90;;;;;;5035344;28;20537;-66
2021/12/09 03:13:41;;;;;;;23.50;13.40;;;4.90;99.90;;;;;;5038610;28;20197;-69
2021/12/09 03:16:07;;;;;;;25.50;14.07;;;4.80;99.90;;;;;;5028624;28;20747;-66
2021/12/09 03:18:46;;;;;;;21.47;11.83;;;4.80;99.90;;;;;;5028865;28;20433;-66
2021/12/09 03:21:18;;;;;;;19.37;11.70;;;4.80;99.90;;;;;;5021426;28;20194;-66
2021/12/09 03:23:44;;;;;;;22.53;12.30;;;4.70;99.90;;;;;;5027775;28;20451;-69
2021/12/09 03:26:10;;;;;;;28.10;12.57;;;4.70;99.90;;;;;;5027772;28;20873;-67
2021/12/09 03:28:35;;;;;;;21.30;11.30;;;4.80;99.90;;;;;;5028910;28;20205;-67
2021/12/09 03:31:01;;;;;;;22.10;11.90;;;4.80;99.90;;;;;;5027814;28;20508;-68
2021/12/09 03:33:26;;;;;;;22.60;12.20;;;5.10;99.90;;;;;;5028786;28;20180;-67
2021/12/09 03:35:57;;;;;;;28.27;12.40;;;4.90;99.90;;;;;;5025931;28;20182;-66
2021/12/09 03:38:24;;;;;;;17.23;11.43;;;4.90;99.90;;;;;;5028224;28;20201;-66
2021/12/09 03:40:49;;;;;;;22.90;12.80;;;4.90;99.90;;;;;;5026435;28;20472;-69
2021/12/09 03:43:15;;;;;;;21.43;11.70;;;4.90;99.90;;;;;;5036438;28;20472;-66
2021/12/09 03:45:40;;;;;;;26.10;12.43;;;4.80;99.90;;;;;;5029562;28;20269;-66
2021/12/09 03:48:06;;;;;;;28.63;11.83;;;4.80;99.90;;;;;;5028437;28;20218;-69
2021/12/09 03:50:31;;;;;;;26.37;12.00;;;4.90;99.90;;;;;;5027809;28;20228;-66
2021/12/09 03:52:57;;;;;;;26.50;11.93;;;4.80;99.90;;;;;;5026870;28;20301;-68
2021/12/09 03:55:23;;;;;;;22.00;11.07;;;4.80;99.90;;;;;;5027706;28;20178;-69
2021/12/09 03:57:48;;;;;;;22.83;11.13;;;4.70;99.90;;;;;;5028044;28;20169;-69
2021/12/09 04:00:14;;;;;;;17.80;11.17;;;4.60;99.90;;;;;;5027648;28;20240;-66
2021/12/09 04:02:40;;;;;;;22.37;11.57;;;4.50;99.90;;;;;;5028221;28;20635;-66
2021/12/09 04:05:08;;;;;;;24.63;11.97;;;4.50;99.90;;;;;;5027806;28;20417;-68
2021/12/09 04:07:34;;;;;;;22.53;10.70;;;4.40;99.90;;;;;;5027362;28;20544;-69
2021/12/09 04:09:59;;;;;;;22.97;10.57;;;4.40;99.90;;;;;;5026030;28;20447;-69
2021/12/09 04:12:25;;;;;;;19.90;11.10;;;4.30;99.90;;;;;;5036468;28;20186;-66
2021/12/09 04:14:51;;;;;;;25.10;11.90;;;4.20;99.90;;;;;;5047961;28;20269;-69
2021/12/09 04:17:16;;;;;;;19.40;10.57;;;4.20;99.90;;;;;;5039238;28;20173;-66
2021/12/09 04:19:47;;;;;;;19.80;11.30;;;3.90;99.90;;;;;;5027552;28;20574;-70
2021/12/09 04:22:17;;;;;;;18.97;10.83;;;3.80;99.90;;;;;;5027505;28;20242;-67
2021/12/09 04:24:43;;;;;;;18.30;10.20;;;3.70;99.90;;;;;;5027456;28;20540;-66
2021/12/09 04:27:09;;;;;;;23.90;10.13;;;3.70;99.90;;;;;;5026837;28;20594;-67
2021/12/09 04:29:35;;;;;;;23.07;10.80;;;3.50;99.90;;;;;;5027642;28;20289;-66
2021/12/09 04:32:00;;;;;;;15.83;10.57;;;3.60;99.90;;;;;;5027230;28;20715;-68
2021/12/09 04:34:26;;;;;;;18.60;10.07;;;3.60;99.90;;;;;;5027619;28;20234;-66
2021/12/09 04:36:52;;;;;;;19.93;10.23;;;3.60;99.90;;;;;;5010916;28;20258;-69
2021/12/09 04:39:18;;;;;;;20.57;9.80;;;3.60;99.90;;;;;;5014849;28;20270;-68
2021/12/09 04:41:44;;;;;;;22.43;10.90;;;3.70;99.90;;;;;;5035535;28;20539;-67
2021/12/09 04:44:10;;;;;;;17.97;9.50;;;3.60;99.90;;;;;;5036693;28;20195;-69
2021/12/09 04:46:36;;;;;;;27.77;10.10;;;3.70;99.90;;;;;;5027421;28;20416;-71
2021/12/09 04:49:04;;;;;;;20.57;9.47;;;3.80;99.90;;;;;;5025564;28;20806;-70
2021/12/09 04:51:29;;;;;;;19.10;9.50;;;3.80;99.90;;;;;;5027328;28;20958;-67
2021/12/09 04:53:55;;;;;;;21.80;9.43;;;4.30;99.90;;;;;;5026818;28;20522;-67
2021/12/09 04:56:21;;;;;;;15.90;8.60;;;3.80;99.90;;;;;;5027383;28;20201;-69
2021/12/09 04:58:47;;;;;;;15.67;8.23;;;4.00;99.90;;;;;;5027285;28;20686;-66
2021/12/09 05:01:13;;;;;;;16.90;9.33;;;3.90;99.90;;;;;;5026542;28;20303;-66
2021/12/09 05:03:38;;;;;;;21.23;8.80;;;3.80;99.90;;;;;;5025400;28;20583;-69
2021/12/09 05:06:04;;;;;;;19.33;8.40;;;3.90;99.90;;;;;;5025176;28;20832;-68
2021/12/09 05:08:32;;;;;;;21.13;8.50;;;3.90;99.90;;;;;;5026949;28;20333;-69
2021/12/09 05:11:07;;;;;;;14.03;7.93;;;3.90;99.90;;;;;;5030802;28;20207;-66
2021/12/09 05:13:36;;;;;;;14.57;9.00;;;3.90;99.90;;;;;;5033227;28;20420;-69
2021/12/09 05:16:04;;;;;;;13.33;8.47;;;4.00;99.90;;;;;;5027039;28;20487;-67
2021/12/09 05:18:33;;;;;;;22.83;8.70;;;4.00;99.90;;;;;;5027207;28;20448;-67
2021/12/09 05:21:00;;;;;;;19.60;8.20;;;4.00;99.90;;;;;;5025271;28;20518;-66
2021/12/09 05:23:25;;;;;;;20.53;8.20;;;4.10;99.90;;;;;;5027011;28;20802;-67
2021/12/09 05:25:52;;;;;;;19.80;8.03;;;4.10;99.90;;;;;;5026008;28;20417;-67
2021/12/09 05:28:19;;;;;;;20.57;8.73;;;4.10;99.90;;;;;;5027750;28;20255;-67
2021/12/09 05:33:31;;;;;;;13.53;8.63;;;4.10;99.90;;;;;;5030947;28;20507;-71
2021/12/09 05:35:57;;;;;;;16.50;8.60;;;4.40;99.90;;;;;;5030681;28;20405;-68
2021/12/09 05:38:22;;;;;;;17.50;8.80;;;4.20;99.90;;;;;;5030210;28;20506;-68
2021/12/09 05:40:48;;;;;;;21.23;9.10;;;4.20;99.90;;;;;;5028823;28;20214;-66
2021/12/09 05:43:15;;;;;;;18.53;8.63;;;4.20;99.90;;;;;;5038037;28;20658;-66
2021/12/09 05:45:42;;;;;;;13.67;8.20;;;4.20;99.90;;;;;;5050373;28;20847;-66
2021/12/09 05:48:09;;;;;;;15.90;8.47;;;4.10;99.90;;;;;;5035531;28;20988;-70
2021/12/09 05:50:35;;;;;;;16.60;7.87;;;4.10;99.90;;;;;;5028814;28;20478;-65
2021/12/09 05:53:00;;;;;;;16.43;7.83;;;4.30;99.90;;;;;;5030003;28;20937;-69
2021/12/09 05:55:26;;;;;;;16.80;7.40;;;4.10;99.90;;;;;;5029851;28;20643;-69
2021/12/09 05:57:52;;;;;;;16.30;7.77;;;4.10;99.90;;;;;;5029970;28;20268;-66
2021/12/09 06:00:18;;;;;;;16.77;6.80;;;4.10;99.90;;;;;;5030113;28;20252;-67
2021/12/09 06:02:43;;;;;;;15.63;7.27;;;4.10;99.90;;;;;;5029655;28;20263;-65
2021/12/09 06:05:09;;;;;;;14.53;7.03;;;4.10;99.90;;;;;;5030168;28;20899;-67
2021/12/09 06:07:35;;;;;;;16.17;8.00;;;4.10;99.90;;;;;;5029346;28;20181;-68
2021/12/09 06:10:03;;;;;;;16.10;7.90;;;4.10;99.90;;;;;;5027609;28;21014;-68
2021/12/09 06:12:28;;;;;;;25.03;9.27;;;4.10;99.90;;;;;;5029258;28;20170;-66
2021/12/09 06:14:54;;;;;;;15.30;8.20;;;4.10;99.90;;;;;;5034591;28;20938;-67
2021/12/09 06:17:19;;;;;;;15.20;8.07;;;4.10;99.90;;;;;;5028070;28;20269;-68
2021/12/09 06:19:45;;;;;;;19.83;8.50;;;4.10;99.90;;;;;;5029061;28;20237;-69
2021/12/09 06:22:10;;;;;;;13.50;7.90;;;4.10;99.90;;;;;;5028981;28;20174;-66
2021/12/09 06:24:36;;;;;;;11.73;7.50;;;4.10;99.90;;;;;;5026409;28;20313;-70
2021/12/09 06:27:03;;;;;;;15.57;8.10;;;4.20;99.90;;;;;;5028430;28;20470;-69
2021/12/09 06:29:29;;;;;;;13.90;7.53;;;4.20;99.90;;;;;;5029279;28;20178;-66
2021/12/09 06:31:54;;;;;;;16.73;7.30;;;4.10;99.90;;;;;;5029598;28;20709;-66
2021/12/09 06:34:20;;;;;;;15.80;8.60;;;3.80;99.90;;;;;;5027543;28;20192;-69
2021/12/09 06:36:45;;;;;;;16.53;8.13;;;4.10;99.90;;;;;;5024143;28;20241;-66
2021/12/09 06:39:12;;;;;;;13.73;7.40;;;4.10;99.90;;;;;;5029231;28;20289;-66
2021/12/09 06:41:38;;;;;;;21.60;8.70;;;4.10;99.90;;;;;;5033942;28;20300;-66
2021/12/09 06:44:04;;;;;;;25.47;11.13;;;4.10;99.90;;;;;;5040871;28;20819;-69
2021/12/09 06:46:30;;;;;;;24.50;11.33;;;4.10;99.90;;;;;;5027814;28;20174;-68
2021/12/09 06:48:56;;;;;;;26.27;12.30;;;4.10;99.90;;;;;;5028047;28;20491;-67
2021/12/09 06:51:22;;;;;;;24.40;11.30;;;4.20;99.90;;;;;;5037054;28;20864;-69
2021/12/09 06:53:48;;;;;;;19.30;8.47;;;4.20;99.90;;;;;;5018994;28;20580;-70
2021/12/09 06:56:13;;;;;;;20.73;9.00;;;4.30;99.90;;;;;;5021547;28;20186;-71
2021/12/09 15:31:46;;;;;;;14.93;4.53;;;4.60;99.90;;;;;;5083965;28;21103;-65
2021/12/09 15:34:19;;;;;;;10.70;4.17;;;4.60;99.90;;;;;;5065401;28;20502;-66
2021/12/09 15:37:00;;;;;;;16.10;3.97;;;4.70;99.90;;;;;;5065026;28;20993;-69
2021/12/09 15:39:29;;;;;;;12.77;4.33;;;4.90;99.90;;;;;;5065373;28;20443;-66
2021/12/09 15:42:06;;;;;;;10.97;4.27;;;5.10;99.90;;;;;;5087126;28;20455;-66
2021/12/09 15:44:47;;;;;;;13.43;3.93;;;5.20;99.90;;;;;;5064011;28;20449;-69
2021/12/09 15:47:18;;;;;;;14.03;3.83;;;5.40;99.90;;;;;;5063386;28;20743;-66
2021/12/09 15:49:50;;;;;;;14.13;4.63;;;5.50;99.90;;;;;;5065031;28;20474;-67
2021/12/09 15:52:18;;;;;;;8.03;3.53;;;5.60;99.90;;;;;;5063678;28;20427;-67
2021/12/09 15:54:49;;;;;;;12.60;3.73;;;5.70;99.90;;;;;;5064093;28;20440;-66
2021/12/09 15:57:19;;;;;;;8.53;3.30;;;5.80;99.90;;;;;;5063538;28;20494;-70
2021/12/09 15:59:45;;;;;;;8.17;3.37;;;5.80;99.90;;;;;;5064922;28;20450;-68
2021/12/09 16:02:13;;;;;;;15.37;3.93;;;5.80;99.90;;;;;;5065612;28;20409;-67
2021/12/09 16:04:39;;;;;;;9.87;3.23;;;5.80;99.90;;;;;;5064531;28;20526;-68
2021/12/09 16:07:05;;;;;;;9.17;3.47;;;5.90;99.90;;;;;;5065232;28;20434;-67
2021/12/09 16:09:31;;;;;;;10.13;3.77;;;5.90;99.90;;;;;;5064451;28;20439;-70
2021/12/09 16:12:00;;;;;;;7.80;3.33;;;6.00;99.90;;;;;;5072502;28;20188;-70
2021/12/09 16:14:28;;;;;;;18.20;4.50;;;6.00;99.90;;;;;;5064502;28;20472;-67
2021/12/09 16:16:58;;;;;;;12.03;3.73;;;6.00;99.90;;;;;;5064385;28;20539;-72
2021/12/09 16:19:33;;;;;;;13.83;3.50;;;6.10;99.90;;;;;;5065043;28;20439;-71
2021/12/09 16:22:43;;;;;;;7.03;3.40;;;6.10;99.90;;;;;;5064684;28;20437;-71
2021/12/09 16:32:30;;;;;;;10.33;3.87;;;5.70;99.90;;;;;;5061733;28;20614;-67
2021/12/09 16:34:56;;;;;;;9.37;3.40;;;5.70;99.90;;;;;;5065812;28;20415;-68
2021/12/09 16:37:22;;;;;;;12.60;3.30;;;5.60;99.90;;;;;;5065665;28;20234;-67
2021/12/09 16:39:48;;;;;;;9.40;4.23;;;5.60;99.90;;;;;;5065277;28;20603;-66
2021/12/09 16:42:15;;;;;;;11.53;3.60;;;5.60;99.90;;;;;;5070459;28;20234;-68
2021/12/09 16:44:41;;;;;;;6.10;3.57;;;5.60;99.90;;;;;;5072692;28;20505;-69
2021/12/09 16:47:07;;;;;;;11.40;4.00;;;5.70;99.90;;;;;;5065685;28;20717;-70
2021/12/09 16:49:33;;;;;;;10.97;3.97;;;5.70;99.90;;;;;;5057459;28;20527;-68
2021/12/09 16:51:59;;;;;;;11.03;3.93;;;5.80;99.90;;;;;;5045537;28;20547;-69
2021/12/09 16:54:31;;;;;;;11.67;3.83;;;5.80;99.90;;;;;;5045489;28;20200;-69
2021/12/09 16:57:10;;;;;;;10.57;4.23;;;5.80;99.90;;;;;;5045703;28;20166;-66
2021/12/09 16:59:36;;;;;;;16.37;4.17;;;5.80;99.90;;;;;;5064585;28;20435;-67
2021/12/09 17:02:10;;;;;;;10.00;4.40;;;5.80;99.90;;;;;;5065535;28;20907;-67
2021/12/09 17:04:37;;;;;;;16.00;4.90;;;5.80;99.90;;;;;;5065887;28;20421;-67
2021/12/09 17:07:04;;;;;;;8.50;4.03;;;5.80;99.90;;;;;;5064904;28;20896;-66
2021/12/09 17:09:29;;;;;;;12.00;4.77;;;5.80;99.90;;;;;;5065058;28;20435;-67
2021/12/09 17:11:56;;;;;;;8.63;3.63;;;5.90;99.90;;;;;;5073314;28;20550;-68
2021/12/09 17:14:24;;;;;;;9.67;3.97;;;5.90;99.90;;;;;;5068627;28;20173;-68
2021/12/09 17:16:52;;;;;;;12.20;4.50;;;5.90;99.90;;;;;;5064745;28;20464;-67
2021/12/09 17:19:18;;;;;;;19.80;5.57;;;5.90;99.90;;;;;;5065067;28;20434;-67
2021/12/09 17:21:45;;;;;;;8.37;4.20;;;5.90;99.90;;;;;;5063416;28;20422;-68
2021/12/09 17:24:11;;;;;;;13.30;4.60;;;5.90;99.90;;;;;;5064447;28;20494;-67
2021/12/09 17:26:39;;;;;;;13.70;5.20;;;5.90;99.90;;;;;;5063312;28;20426;-67
2021/12/09 17:29:08;;;;;;;12.60;5.03;;;5.90;99.90;;;;;;5064700;28;20484;-66
2021/12/09 17:31:42;;;;;;;11.30;5.27;;;5.90;99.90;;;;;;5064844;28;20463;-67
2021/12/09 17:34:09;;;;;;;13.87;4.80;;;5.90;99.90;;;;;;5065050;28;20934;-70
2021/12/09 17:36:36;;;;;;;15.63;5.27;;;5.90;99.90;;;;;;5063996;28;20395;-72
2021/12/09 17:39:07;;;;;;;16.53;4.63;;;5.90;99.90;;;;;;5062505;28;21098;-66
2021/12/09 17:41:33;;;;;;;10.10;4.73;;;5.90;99.90;;;;;;5069202;28;20446;-66
2021/12/09 17:44:00;;;;;;;16.23;5.03;;;5.90;99.90;;;;;;5063326;28;20559;-67
2021/12/09 17:46:26;;;;;;;15.40;4.50;;;5.90;99.90;;;;;;5071381;28;20788;-67
2021/12/09 17:48:52;;;;;;;14.50;5.10;;;5.90;99.90;;;;;;5070775;28;20454;-66
2021/12/09 17:51:19;;;;;;;13.53;5.20;;;5.90;99.90;;;;;;5071298;28;20482;-70
2021/12/09 17:53:45;;;;;;;14.27;4.90;;;5.80;99.90;;;;;;5046914;28;20173;-71
2021/12/09 17:56:13;;;;;;;11.83;4.90;;;5.80;99.90;;;;;;5058080;28;20490;-71
2021/12/09 17:58:40;;;;;;;7.83;5.00;;;5.80;99.90;;;;;;5070882;28;20551;-67
2021/12/09 18:01:06;;;;;;;12.97;6.57;;;5.80;99.90;;;;;;5071352;28;20750;-70
2021/12/09 18:03:31;;;;;;;17.83;5.27;;;5.70;99.90;;;;;;5070785;28;20417;-67
2021/12/09 18:05:57;;;;;;;11.60;5.13;;;5.70;99.90;;;;;;5060119;28;20635;-67
2021/12/09 18:08:23;;;;;;;15.40;6.97;;;5.70;99.90;;;;;;5050103;28;20591;-67
2021/12/09 18:10:50;;;;;;;13.90;5.50;;;5.70;99.90;;;;;;5054755;28;20196;-70
2021/12/09 18:13:19;;;;;;;18.90;6.43;;;5.70;99.90;;;;;;5062433;28;20164;-67
2021/12/09 18:15:47;;;;;;;16.17;4.67;;;5.70;99.90;;;;;;5071052;28;20486;-69
2021/12/09 18:18:13;;;;;;;11.17;3.80;;;5.60;99.90;;;;;;5070288;28;20584;-66
2021/12/09 18:20:39;;;;;;;9.67;3.60;;;5.60;99.90;;;;;;5070974;28;20904;-67
2021/12/09 18:23:05;;;;;;;11.97;5.40;;;5.60;99.90;;;;;;5063029;28;20169;-67
2021/12/09 18:25:32;;;;;;;9.37;4.13;;;5.60;99.90;;;;;;5049926;28;20416;-67
2021/12/09 18:27:57;;;;;;;17.77;4.20;;;5.70;99.90;;;;;;5049697;28;20593;-66
2021/12/09 18:30:29;;;;;;;10.80;3.57;;;5.70;99.90;;;;;;5048785;28;20949;-66
2021/12/09 18:32:55;;;;;;;4.90;2.87;;;5.70;99.90;;;;;;5050482;28;20188;-67
2021/12/09 18:35:27;;;;;;;9.90;3.77;;;5.70;99.90;;;;;;5047459;28;20420;-68
2021/12/09 18:37:55;;;;;;;9.23;3.83;;;5.60;99.90;;;;;;5033415;28;20486;-69
2021/12/09 18:40:26;;;;;;;14.30;6.10;;;5.70;99.90;;;;;;5035773;28;20820;-67
2021/12/09 18:42:53;;;;;;;13.93;3.20;;;5.80;99.90;;;;;;5051319;28;20952;-70
2021/12/09 18:45:23;;;;;;;9.53;3.00;;;5.80;99.90;;;;;;5045483;28;20968;-70
2021/12/09 18:47:50;;;;;;;11.47;3.63;;;5.70;99.90;;;;;;5035573;28;20436;-70
2021/12/09 18:50:18;;;;;;;6.73;3.20;;;5.70;99.90;;;;;;5047923;28;20428;-71
2021/12/09 18:52:44;;;;;;;8.53;3.47;;;5.70;99.90;;;;;;5039936;28;20511;-69
2021/12/09 18:55:11;;;;;;;12.63;3.37;;;5.70;99.90;;;;;;5030334;28;20423;-68
2021/12/09 18:57:36;;;;;;;7.27;2.87;;;5.70;99.90;;;;;;5027129;28;20992;-68
2021/12/09 19:00:10;;;;;;;16.87;3.90;;;5.70;99.90;;;;;;5048527;28;20425;-68
2021/12/09 19:02:37;;;;;;;13.77;3.43;;;5.70;99.90;;;;;;5031992;28;20178;-67
2021/12/09 19:05:05;;;;;;;12.37;4.20;;;5.70;99.90;;;;;;5029535;28;20428;-67
2021/12/09 19:07:31;;;;;;;17.73;3.60;;;5.70;99.90;;;;;;5044310;28;20462;-70
2021/12/09 19:09:56;;;;;;;9.57;4.50;;;5.70;99.90;;;;;;5046604;28;20891;-73
2021/12/09 19:12:22;;;;;;;7.27;3.90;;;5.70;99.90;;;;;;5050200;28;20209;-67
2021/12/09 19:14:47;;;;;;;7.67;3.53;;;5.70;99.90;;;;;;5048427;28;20677;-69
2021/12/09 19:17:27;;;;;;;8.10;3.70;;;5.70;99.90;;;;;;5041539;28;20387;-67
2021/12/09 19:19:53;;;;;;;11.60;3.60;;;5.60;99.90;;;;;;5029139;28;20265;-67
2021/12/09 19:22:21;;;;;;;8.80;3.90;;;5.50;99.90;;;;;;5031190;28;20432;-73
2021/12/09 19:24:47;;;;;;;10.07;4.40;;;6.00;99.90;;;;;;5039125;28;20444;-70
2021/12/09 19:27:13;;;;;;;6.90;3.53;;;5.50;99.90;;;;;;5059842;28;20423;-70
2021/12/09 19:29:38;;;;;;;8.70;3.60;;;5.50;99.90;;;;;;5049070;28;20925;-68
2021/12/09 19:32:05;;;;;;;9.63;3.40;;;5.20;99.90;;;;;;5040456;28;20229;-67
2021/12/09 19:34:30;;;;;;;9.50;3.00;;;5.50;99.90;;;;;;5029921;28;20639;-68
2021/12/09 19:36:56;;;;;;;8.80;3.27;;;5.50;99.90;;;;;;5028034;28;20450;-73
2021/12/09 19:39:23;;;;;;;11.13;4.00;;;5.50;99.90;;;;;;5038507;28;20312;-69
2021/12/09 19:41:50;;;;;;;12.53;3.90;;;5.40;99.90;;;;;;5048524;28;20169;-69
2021/12/09 19:44:15;;;;;;;6.53;2.97;;;5.50;99.90;;;;;;5046683;28;20424;-67
2021/12/09 19:46:42;;;;;;;14.70;3.70;;;5.40;99.90;;;;;;5028355;28;20739;-69
2021/12/09 19:49:08;;;;;;;11.50;4.00;;;5.50;99.90;;;;;;5031961;28;20241;-72
2021/12/09 19:51:34;;;;;;;12.03;3.43;;;5.50;99.90;;;;;;5028275;28;20545;-68
2021/12/09 19:54:00;;;;;;;9.17;3.77;;;5.60;99.90;;;;;;5040735;28;20177;-68
2021/12/09 19:56:26;;;;;;;6.70;2.77;;;5.50;99.90;;;;;;5047484;28;20165;-67
2021/12/09 19:58:52;;;;;;;8.90;3.50;;;5.50;99.90;;;;;;5047232;28;20576;-70
2021/12/09 20:01:18;;;;;;;8.23;4.00;;;5.50;99.90;;;;;;5040710;28;20542;-68
2021/12/09 20:03:44;;;;;;;11.80;4.40;;;5.50;99.90;;;;;;5040289;28;20181;-68
2021/12/09 20:06:12;;;;;;;11.30;4.83;;;5.40;99.90;;;;;;5045731;28;20490;-67
2021/12/09 20:08:40;;;;;;;14.83;5.00;;;5.30;99.90;;;;;;5039933;28;20252;-67
2021/12/09 20:11:08;;;;;;;10.63;3.47;;;5.30;99.90;;;;;;5034631;28;20463;-67
2021/12/09 20:13:37;;;;;;;11.93;4.60;;;5.30;99.90;;;;;;5036676;28;20535;-69
2021/12/09 20:16:04;;;;;;;8.07;3.93;;;5.30;99.90;;;;;;5029947;28;20588;-67
2021/12/09 20:18:31;;;;;;;7.37;3.80;;;5.20;99.90;;;;;;5029864;28;20450;-67
2021/12/09 20:20:57;;;;;;;14.60;4.20;;;5.20;99.90;;;;;;5027103;28;20905;-69
2021/12/09 20:23:23;;;;;;;6.33;3.00;;;5.10;99.90;;;;;;5027331;28;20471;-71
2021/12/09 20:25:49;;;;;;;12.10;3.83;;;5.10;99.90;;;;;;5038760;28;20260;-73
2021/12/09 20:28:14;;;;;;;8.70;3.57;;;5.00;99.90;;;;;;5046690;28;20495;-67
2021/12/09 20:30:40;;;;;;;9.40;3.03;;;5.00;99.90;;;;;;5046982;28;20280;-68
2021/12/09 20:33:05;;;;;;;10.13;3.27;;;5.10;99.90;;;;;;5027313;28;20174;-67
2021/12/09 20:35:31;;;;;;;10.80;3.37;;;5.40;99.90;;;;;;5038760;28;20177;-73
2021/12/09 20:37:57;;;;;;;10.37;3.17;;;5.20;99.90;;;;;;5039053;28;20658;-67
2021/12/09 20:40:23;;;;;;;6.77;3.30;;;5.10;99.90;;;;;;5042565;28;20178;-68
2021/12/09 20:42:49;;;;;;;8.43;3.10;;;5.20;99.90;;;;;;5056648;28;20442;-68
2021/12/09 20:45:16;;;;;;;4.77;2.53;;;5.20;99.90;;;;;;5059281;28;20524;-69
2021/12/09 20:47:46;;;;;;;14.77;3.10;;;5.20;99.90;;;;;;5035095;28;20508;-66
2021/12/09 20:50:15;;;;;;;5.33;2.63;;;5.20;99.90;;;;;;5029924;28;20948;-67
2021/12/09 20:52:41;;;;;;;6.70;3.00;;;5.20;99.90;;;;;;5037532;28;20485;-67
2021/12/09 20:55:07;;;;;;;11.83;3.17;;;5.20;99.90;;;;;;5046226;28;20526;-67
2021/12/09 20:57:33;;;;;;;6.50;2.67;;;5.20;99.90;;;;;;5036346;28;20189;-69
2021/12/09 20:59:59;;;;;;;7.60;2.80;;;5.20;99.90;;;;;;5028007;28;20494;-73
2021/12/09 21:02:24;;;;;;;11.03;4.10;;;5.20;99.90;;;;;;5034032;28;20210;-69
2021/12/09 21:04:50;;;;;;;7.93;2.87;;;5.20;99.90;;;;;;5032667;28;20700;-67
2021/12/09 21:07:16;;;;;;;6.97;2.70;;;5.20;99.90;;;;;;5028577;28;20948;-69
2021/12/09 21:09:41;;;;;;;8.33;2.60;;;5.20;99.90;;;;;;5028628;28;20547;-71
2021/12/09 21:12:07;;;;;;;8.20;3.13;;;5.30;99.90;;;;;;5034927;28;20213;-68
2021/12/09 21:14:35;;;;;;;10.60;2.73;;;5.30;99.90;;;;;;5045023;28;20226;-66
2021/12/09 21:17:00;;;;;;;25.33;3.50;;;5.30;99.90;;;;;;5038570;28;20181;-68
2021/12/09 21:19:27;;;;;;;7.20;2.53;;;5.40;99.90;;;;;;5050929;28;20442;-67
2021/12/09 21:21:52;;;;;;;6.47;3.27;;;5.40;99.90;;;;;;5050144;28;20227;-67
2021/12/09 21:24:18;;;;;;;9.23;2.67;;;5.40;99.90;;;;;;5048818;28;20455;-69
2021/12/09 21:26:43;;;;;;;5.23;2.50;;;5.50;99.90;;;;;;5050129;28;20185;-74
2021/12/09 21:29:15;;;;;;;5.57;3.40;;;5.50;99.90;;;;;;5051298;28;20275;-67